sensor_id;sensor_type;location;lat;lon;timestamp;P1;durP1;ratioP1;P2;durP2;ratioP2
1410;SDS011;700;51.906;8.404;2024-01-07T00:04:48;13.40;;;10.23;;
1410;SDS011;700;51.906;8.404;2024-01-07T00:09:51;14.37;;;10.57;;
1410;SDS011;700;51.906;8.404;2024-01-07T00:14:51;12.57;;;9.50;;
1410;SDS011;700;51.906;8.404;2024-01-07T00:19:54;13.27;;;9.90;;
1410;SDS011;700;51.906;8.404;2024-01-07T00:24:55;14.27;;;11.00;;
1410;SDS011;700;51.906;8.404;2024-01-07T00:29:56;14.30;;;10.10;;
1410;SDS011;700;51.906;8.404;2024-01-07T00:34:56;12.23;;;8.70;;
1410;SDS011;700;51.906;8.404;2024-01-07T00:39:57;11.70;;;9.70;;
1410;SDS011;700;51.906;8.404;2024-01-07T00:44:57;12.83;;;8.97;;
1410;SDS011;700;51.906;8.404;2024-01-07T00:50:01;13.17;;;9.50;;
1410;SDS011;700;51.906;8.404;2024-01-07T00:55:03;15.63;;;10.20;;
1410;SDS011;700;51.906;8.404;2024-01-07T01:00:06;14.47;;;10.20;;
1410;SDS011;700;51.906;8.404;2024-01-07T01:05:07;23.53;;;13.40;;
1410;SDS011;700;51.906;8.404;2024-01-07T01:10:10;17.63;;;12.67;;
1410;SDS011;700;51.906;8.404;2024-01-07T01:15:11;13.27;;;9.67;;
1410;SDS011;700;51.906;8.404;2024-01-07T01:20:12;13.77;;;8.50;;
1410;SDS011;700;51.906;8.404;2024-01-07T01:25:13;18.53;;;10.60;;
1410;SDS011;700;51.906;8.404;2024-01-07T01:30:18;14.00;;;9.40;;
1410;SDS011;700;51.906;8.404;2024-01-07T01:35:21;14.30;;;9.20;;
1410;SDS011;700;51.906;8.404;2024-01-07T01:40:22;12.57;;;9.00;;
1410;SDS011;700;51.906;8.404;2024-01-07T01:45:25;12.80;;;8.93;;
1410;SDS011;700;51.906;8.404;2024-01-07T01:50:25;12.90;;;8.60;;
1410;SDS011;700;51.906;8.404;2024-01-07T01:55:26;22.20;;;9.90;;
1410;SDS011;700;51.906;8.404;2024-01-07T02:00:29;12.90;;;8.77;;
1410;SDS011;700;51.906;8.404;2024-01-07T02:05:33;11.00;;;8.60;;
1410;SDS011;700;51.906;8.404;2024-01-07T02:10:36;12.10;;;8.07;;
1410;SDS011;700;51.906;8.404;2024-01-07T02:15:37;12.90;;;8.10;;
1410;SDS011;700;51.906;8.404;2024-01-07T02:20:37;11.07;;;7.60;;
1410;SDS011;700;51.906;8.404;2024-01-07T02:25:39;11.17;;;7.27;;
1410;SDS011;700;51.906;8.404;2024-01-07T02:30:42;13.10;;;7.60;;
1410;SDS011;700;51.906;8.404;2024-01-07T02:35:43;11.00;;;8.07;;
1410;SDS011;700;51.906;8.404;2024-01-07T02:40:46;11.17;;;7.17;;
1410;SDS011;700;51.906;8.404;2024-01-07T02:45:49;10.13;;;6.60;;
1410;SDS011;700;51.906;8.404;2024-01-07T02:50:50;15.70;;;8.67;;
1410;SDS011;700;51.906;8.404;2024-01-07T02:55:50;14.00;;;7.80;;
1410;SDS011;700;51.906;8.404;2024-01-07T03:00:56;10.87;;;8.50;;
1410;SDS011;700;51.906;8.404;2024-01-07T03:05:59;10.63;;;7.00;;
1410;SDS011;700;51.906;8.404;2024-01-07T03:11:04;10.03;;;7.13;;
1410;SDS011;700;51.906;8.404;2024-01-07T03:16:06;10.50;;;6.57;;
1410;SDS011;700;51.906;8.404;2024-01-07T03:21:15;11.90;;;7.10;;
1410;SDS011;700;51.906;8.404;2024-01-07T03:26:19;9.87;;;7.40;;
1410;SDS011;700;51.906;8.404;2024-01-07T03:31:23;9.00;;;7.27;;
1410;SDS011;700;51.906;8.404;2024-01-07T03:36:23;9.57;;;7.07;;
1410;SDS011;700;51.906;8.404;2024-01-07T03:41:24;12.77;;;7.70;;
1410;SDS011;700;51.906;8.404;2024-01-07T03:46:25;11.60;;;8.60;;
1410;SDS011;700;51.906;8.404;2024-01-07T03:51:25;13.80;;;8.50;;
1410;SDS011;700;51.906;8.404;2024-01-07T03:56:26;11.90;;;8.23;;
1410;SDS011;700;51.906;8.404;2024-01-07T04:01:26;11.00;;;8.00;;
1410;SDS011;700;51.906;8.404;2024-01-07T04:06:30;12.83;;;8.80;;
1410;SDS011;700;51.906;8.404;2024-01-07T04:11:30;13.77;;;9.00;;
1410;SDS011;700;51.906;8.404;2024-01-07T04:16:31;13.93;;;9.73;;
1410;SDS011;700;51.906;8.404;2024-01-07T04:21:31;10.27;;;7.70;;
1410;SDS011;700;51.906;8.404;2024-01-07T04:26:32;12.87;;;8.27;;
1410;SDS011;700;51.906;8.404;2024-01-07T04:31:33;11.53;;;7.53;;
1410;SDS011;700;51.906;8.404;2024-01-07T04:36:35;10.50;;;7.33;;
1410;SDS011;700;51.906;8.404;2024-01-07T04:41:36;10.07;;;7.57;;
1410;SDS011;700;51.906;8.404;2024-01-07T04:46:40;10.97;;;7.17;;
1410;SDS011;700;51.906;8.404;2024-01-07T04:51:41;9.63;;;7.33;;
1410;SDS011;700;51.906;8.404;2024-01-07T04:56:41;11.17;;;7.47;;
1410;SDS011;700;51.906;8.404;2024-01-07T05:01:42;10.10;;;7.27;;
1410;SDS011;700;51.906;8.404;2024-01-07T05:06:44;8.43;;;6.80;;
1410;SDS011;700;51.906;8.404;2024-01-07T05:11:45;9.43;;;6.10;;
1410;SDS011;700;51.906;8.404;2024-01-07T05:16:45;9.33;;;5.80;;
1410;SDS011;700;51.906;8.404;2024-01-07T05:21:46;5.57;;;4.37;;
1410;SDS011;700;51.906;8.404;2024-01-07T05:26:47;7.60;;;5.10;;
1410;SDS011;700;51.906;8.404;2024-01-07T05:31:50;7.90;;;6.17;;
1410;SDS011;700;51.906;8.404;2024-01-07T05:36:50;8.50;;;6.13;;
1410;SDS011;700;51.906;8.404;2024-01-07T05:41:51;9.93;;;6.80;;
1410;SDS011;700;51.906;8.404;2024-01-07T05:46:51;10.80;;;6.83;;
1410;SDS011;700;51.906;8.404;2024-01-07T05:51:52;9.60;;;6.60;;
1410;SDS011;700;51.906;8.404;2024-01-07T05:56:53;9.30;;;6.87;;
1410;SDS011;700;51.906;8.404;2024-01-07T06:01:57;11.80;;;6.87;;
1410;SDS011;700;51.906;8.404;2024-01-07T06:07:01;10.20;;;6.53;;
1410;SDS011;700;51.906;8.404;2024-01-07T06:12:02;8.73;;;6.33;;
1410;SDS011;700;51.906;8.404;2024-01-07T06:17:05;7.53;;;5.57;;
1410;SDS011;700;51.906;8.404;2024-01-07T06:22:06;8.50;;;6.30;;
1410;SDS011;700;51.906;8.404;2024-01-07T06:27:07;8.53;;;6.17;;
1410;SDS011;700;51.906;8.404;2024-01-07T06:32:07;11.63;;;6.57;;
1410;SDS011;700;51.906;8.404;2024-01-07T06:37:10;8.87;;;5.27;;
1410;SDS011;700;51.906;8.404;2024-01-07T06:42:11;11.97;;;6.90;;
1410;SDS011;700;51.906;8.404;2024-01-07T06:47:11;8.13;;;6.10;;
1410;SDS011;700;51.906;8.404;2024-01-07T06:52:12;7.13;;;4.90;;
1410;SDS011;700;51.906;8.404;2024-01-07T06:57:13;6.70;;;5.43;;
1410;SDS011;700;51.906;8.404;2024-01-07T07:02:13;7.33;;;5.87;;
1410;SDS011;700;51.906;8.404;2024-01-07T07:07:16;8.77;;;5.10;;
1410;SDS011;700;51.906;8.404;2024-01-07T07:12:17;5.63;;;4.70;;
1410;SDS011;700;51.906;8.404;2024-01-07T07:17:20;10.13;;;4.23;;
1410;SDS011;700;51.906;8.404;2024-01-07T07:22:23;5.30;;;3.87;;
1410;SDS011;700;51.906;8.404;2024-01-07T07:27:26;6.87;;;4.00;;
1410;SDS011;700;51.906;8.404;2024-01-07T07:32:31;6.07;;;3.50;;
1410;SDS011;700;51.906;8.404;2024-01-07T07:37:32;7.00;;;4.90;;
1410;SDS011;700;51.906;8.404;2024-01-07T07:42:32;6.33;;;3.67;;
1410;SDS011;700;51.906;8.404;2024-01-07T07:47:33;8.80;;;4.50;;
1410;SDS011;700;51.906;8.404;2024-01-07T07:52:33;6.77;;;3.30;;
1410;SDS011;700;51.906;8.404;2024-01-07T07:57:37;6.73;;;3.20;;
1410;SDS011;700;51.906;8.404;2024-01-07T08:02:43;5.13;;;3.53;;
1410;SDS011;700;51.906;8.404;2024-01-07T08:07:46;6.43;;;4.07;;
1410;SDS011;700;51.906;8.404;2024-01-07T08:12:49;5.60;;;3.23;;
1410;SDS011;700;51.906;8.404;2024-01-07T08:17:49;5.27;;;3.80;;
1410;SDS011;700;51.906;8.404;2024-01-07T08:22:51;6.13;;;2.93;;
1410;SDS011;700;51.906;8.404;2024-01-07T08:27:54;5.40;;;3.23;;
1410;SDS011;700;51.906;8.404;2024-01-07T08:32:55;5.23;;;3.17;;
1410;SDS011;700;51.906;8.404;2024-01-07T08:37:58;5.27;;;3.23;;
1410;SDS011;700;51.906;8.404;2024-01-07T08:42:58;4.50;;;2.80;;
1410;SDS011;700;51.906;8.404;2024-01-07T08:47:59;8.37;;;3.10;;
1410;SDS011;700;51.906;8.404;2024-01-07T08:53:02;4.13;;;2.50;;
1410;SDS011;700;51.906;8.404;2024-01-07T08:58:05;6.90;;;3.30;;
1410;SDS011;700;51.906;8.404;2024-01-07T09:03:06;4.20;;;2.80;;
1410;SDS011;700;51.906;8.404;2024-01-07T09:08:07;5.10;;;2.50;;
1410;SDS011;700;51.906;8.404;2024-01-07T09:13:08;4.43;;;2.20;;
1410;SDS011;700;51.906;8.404;2024-01-07T09:18:10;7.30;;;2.90;;
1410;SDS011;700;51.906;8.404;2024-01-07T09:23:11;4.63;;;2.80;;
1410;SDS011;700;51.906;8.404;2024-01-07T09:28:12;6.87;;;2.90;;
1410;SDS011;700;51.906;8.404;2024-01-07T09:33:13;5.47;;;2.87;;
1410;SDS011;700;51.906;8.404;2024-01-07T09:38:18;3.37;;;2.37;;
1410;SDS011;700;51.906;8.404;2024-01-07T09:43:19;4.20;;;3.10;;
1410;SDS011;700;51.906;8.404;2024-01-07T09:48:20;3.67;;;2.07;;
1410;SDS011;700;51.906;8.404;2024-01-07T09:53:21;3.70;;;2.83;;
1410;SDS011;700;51.906;8.404;2024-01-07T09:58:30;3.57;;;2.40;;
1410;SDS011;700;51.906;8.404;2024-01-07T10:03:31;3.03;;;2.10;;
1410;SDS011;700;51.906;8.404;2024-01-07T10:08:34;4.67;;;2.90;;
1410;SDS011;700;51.906;8.404;2024-01-07T10:13:34;4.97;;;2.80;;
1410;SDS011;700;51.906;8.404;2024-01-07T10:18:35;3.87;;;2.73;;
1410;SDS011;700;51.906;8.404;2024-01-07T10:23:39;4.03;;;2.60;;
1410;SDS011;700;51.906;8.404;2024-01-07T10:28:42;3.50;;;3.20;;
1410;SDS011;700;51.906;8.404;2024-01-07T10:33:43;3.90;;;2.67;;
1410;SDS011;700;51.906;8.404;2024-01-07T10:38:44;3.93;;;2.67;;
1410;SDS011;700;51.906;8.404;2024-01-07T10:43:46;3.37;;;2.50;;
1410;SDS011;700;51.906;8.404;2024-01-07T10:48:51;6.97;;;3.10;;
1410;SDS011;700;51.906;8.404;2024-01-07T10:53:57;4.20;;;2.87;;
1410;SDS011;700;51.906;8.404;2024-01-07T10:58:58;3.83;;;2.80;;
1410;SDS011;700;51.906;8.404;2024-01-07T11:04:17;4.03;;;2.57;;
1410;SDS011;700;51.906;8.404;2024-01-07T11:09:31;3.90;;;2.40;;
1410;SDS011;700;51.906;8.404;2024-01-07T11:14:37;3.87;;;2.50;;
1410;SDS011;700;51.906;8.404;2024-01-07T11:19:49;3.37;;;2.30;;
1410;SDS011;700;51.906;8.404;2024-01-07T11:24:55;3.10;;;2.43;;
1410;SDS011;700;51.906;8.404;2024-01-07T11:30:18;3.60;;;2.33;;
1410;SDS011;700;51.906;8.404;2024-01-07T11:35:21;7.70;;;2.70;;
1410;SDS011;700;51.906;8.404;2024-01-07T11:40:59;3.10;;;2.37;;
1410;SDS011;700;51.906;8.404;2024-01-07T11:46:00;3.73;;;2.37;;
1410;SDS011;700;51.906;8.404;2024-01-07T11:51:01;4.30;;;2.63;;
1410;SDS011;700;51.906;8.404;2024-01-07T11:56:02;3.40;;;2.30;;
1410;SDS011;700;51.906;8.404;2024-01-07T12:01:03;3.23;;;2.50;;
1410;SDS011;700;51.906;8.404;2024-01-07T12:06:06;4.20;;;2.10;;
1410;SDS011;700;51.906;8.404;2024-01-07T12:11:06;4.17;;;2.73;;
1410;SDS011;700;51.906;8.404;2024-01-07T12:16:08;7.70;;;3.27;;
1410;SDS011;700;51.906;8.404;2024-01-07T12:21:18;4.27;;;2.20;;
1410;SDS011;700;51.906;8.404;2024-01-07T12:26:21;8.90;;;2.17;;
1410;SDS011;700;51.906;8.404;2024-01-07T12:31:26;4.10;;;2.90;;
1410;SDS011;700;51.906;8.404;2024-01-07T12:36:30;3.60;;;2.47;;
1410;SDS011;700;51.906;8.404;2024-01-07T12:41:31;5.27;;;2.80;;
1410;SDS011;700;51.906;8.404;2024-01-07T12:46:34;3.53;;;2.50;;
1410;SDS011;700;51.906;8.404;2024-01-07T12:51:35;3.80;;;1.70;;
1410;SDS011;700;51.906;8.404;2024-01-07T12:56:35;3.40;;;2.00;;
1410;SDS011;700;51.906;8.404;2024-01-07T13:01:38;3.37;;;2.37;;
1410;SDS011;700;51.906;8.404;2024-01-07T13:06:39;5.07;;;3.27;;
1410;SDS011;700;51.906;8.404;2024-01-07T13:11:40;4.30;;;2.80;;
1410;SDS011;700;51.906;8.404;2024-01-07T13:16:41;6.30;;;3.70;;
1410;SDS011;700;51.906;8.404;2024-01-07T13:21:41;2.40;;;2.03;;
1410;SDS011;700;51.906;8.404;2024-01-07T13:26:45;3.73;;;2.60;;
1410;SDS011;700;51.906;8.404;2024-01-07T13:31:46;6.53;;;2.57;;
1410;SDS011;700;51.906;8.404;2024-01-07T13:36:46;4.00;;;2.67;;
1410;SDS011;700;51.906;8.404;2024-01-07T13:41:49;3.47;;;2.53;;
1410;SDS011;700;51.906;8.404;2024-01-07T13:46:50;3.80;;;2.50;;
1410;SDS011;700;51.906;8.404;2024-01-07T13:51:54;8.97;;;2.73;;
1410;SDS011;700;51.906;8.404;2024-01-07T13:56:55;4.20;;;3.00;;
1410;SDS011;700;51.906;8.404;2024-01-07T14:01:58;3.00;;;2.67;;
1410;SDS011;700;51.906;8.404;2024-01-07T14:06:59;4.83;;;2.87;;
1410;SDS011;700;51.906;8.404;2024-01-07T14:12:00;3.37;;;2.53;;
1410;SDS011;700;51.906;8.404;2024-01-07T14:17:02;3.23;;;2.57;;
1410;SDS011;700;51.906;8.404;2024-01-07T14:22:05;3.73;;;2.53;;
1410;SDS011;700;51.906;8.404;2024-01-07T14:27:08;3.20;;;2.70;;
1410;SDS011;700;51.906;8.404;2024-01-07T14:32:11;2.70;;;2.13;;
1410;SDS011;700;51.906;8.404;2024-01-07T14:37:14;3.80;;;2.70;;
1410;SDS011;700;51.906;8.404;2024-01-07T14:42:18;4.00;;;2.77;;
1410;SDS011;700;51.906;8.404;2024-01-07T14:47:18;4.43;;;2.80;;
1410;SDS011;700;51.906;8.404;2024-01-07T14:52:19;4.87;;;2.07;;
1410;SDS011;700;51.906;8.404;2024-01-07T14:57:22;4.13;;;2.60;;
1410;SDS011;700;51.906;8.404;2024-01-07T15:02:23;2.87;;;2.20;;
1410;SDS011;700;51.906;8.404;2024-01-07T15:07:24;4.10;;;3.00;;
1410;SDS011;700;51.906;8.404;2024-01-07T15:12:27;3.07;;;2.30;;
1410;SDS011;700;51.906;8.404;2024-01-07T15:17:35;5.67;;;2.27;;
1410;SDS011;700;51.906;8.404;2024-01-07T15:22:38;3.53;;;2.60;;
1410;SDS011;700;51.906;8.404;2024-01-07T15:27:39;4.00;;;2.83;;
1410;SDS011;700;51.906;8.404;2024-01-07T15:32:42;4.30;;;2.50;;
1410;SDS011;700;51.906;8.404;2024-01-07T15:37:43;5.03;;;3.20;;
1410;SDS011;700;51.906;8.404;2024-01-07T15:42:43;3.63;;;2.50;;
1410;SDS011;700;51.906;8.404;2024-01-07T15:47:44;6.07;;;2.87;;
1410;SDS011;700;51.906;8.404;2024-01-07T15:52:44;2.97;;;2.40;;
1410;SDS011;700;51.906;8.404;2024-01-07T15:57:47;3.57;;;2.67;;
1410;SDS011;700;51.906;8.404;2024-01-07T16:02:50;3.90;;;2.63;;
1410;SDS011;700;51.906;8.404;2024-01-07T16:07:51;3.77;;;2.53;;
1410;SDS011;700;51.906;8.404;2024-01-07T16:12:52;5.87;;;3.20;;
1410;SDS011;700;51.906;8.404;2024-01-07T16:17:56;4.27;;;2.73;;
1410;SDS011;700;51.906;8.404;2024-01-07T16:22:56;4.10;;;2.40;;
1410;SDS011;700;51.906;8.404;2024-01-07T16:28:00;4.90;;;2.67;;
1410;SDS011;700;51.906;8.404;2024-01-07T16:33:03;9.67;;;5.17;;
1410;SDS011;700;51.906;8.404;2024-01-07T16:38:04;6.63;;;2.80;;
1410;SDS011;700;51.906;8.404;2024-01-07T16:43:05;7.87;;;3.30;;
1410;SDS011;700;51.906;8.404;2024-01-07T16:48:06;7.27;;;3.60;;
1410;SDS011;700;51.906;8.404;2024-01-07T16:53:09;6.80;;;3.90;;
1410;SDS011;700;51.906;8.404;2024-01-07T16:58:09;6.17;;;4.00;;
1410;SDS011;700;51.906;8.404;2024-01-07T17:03:10;5.83;;;3.60;;
1410;SDS011;700;51.906;8.404;2024-01-07T17:08:11;5.70;;;3.80;;
1410;SDS011;700;51.906;8.404;2024-01-07T17:13:11;5.77;;;3.60;;
1410;SDS011;700;51.906;8.404;2024-01-07T17:18:12;5.60;;;3.57;;
1410;SDS011;700;51.906;8.404;2024-01-07T17:23:15;6.30;;;4.13;;
1410;SDS011;700;51.906;8.404;2024-01-07T17:28:21;5.17;;;3.43;;
1410;SDS011;700;51.906;8.404;2024-01-07T17:33:24;6.70;;;4.40;;
1410;SDS011;700;51.906;8.404;2024-01-07T17:38:25;7.77;;;3.83;;
1410;SDS011;700;51.906;8.404;2024-01-07T17:43:25;4.90;;;3.37;;
1410;SDS011;700;51.906;8.404;2024-01-07T17:48:28;8.03;;;4.60;;
1410;SDS011;700;51.906;8.404;2024-01-07T17:53:32;7.10;;;4.90;;
1410;SDS011;700;51.906;8.404;2024-01-07T17:58:35;5.27;;;3.50;;
1410;SDS011;700;51.906;8.404;2024-01-07T18:03:36;4.57;;;3.30;;
1410;SDS011;700;51.906;8.404;2024-01-07T18:08:37;11.77;;;4.30;;
1410;SDS011;700;51.906;8.404;2024-01-07T18:13:38;6.40;;;3.73;;
1410;SDS011;700;51.906;8.404;2024-01-07T18:18:39;6.43;;;3.73;;
1410;SDS011;700;51.906;8.404;2024-01-07T18:23:40;4.17;;;3.20;;
1410;SDS011;700;51.906;8.404;2024-01-07T18:28:40;6.37;;;3.60;;
1410;SDS011;700;51.906;8.404;2024-01-07T18:33:44;7.17;;;4.13;;
1410;SDS011;700;51.906;8.404;2024-01-07T18:38:48;5.80;;;3.80;;
1410;SDS011;700;51.906;8.404;2024-01-07T18:43:49;7.07;;;3.97;;
1410;SDS011;700;51.906;8.404;2024-01-07T18:48:49;7.63;;;4.27;;
1410;SDS011;700;51.906;8.404;2024-01-07T18:53:52;6.20;;;4.13;;
1410;SDS011;700;51.906;8.404;2024-01-07T18:58:53;13.00;;;5.40;;
1410;SDS011;700;51.906;8.404;2024-01-07T19:03:57;8.60;;;4.50;;
1410;SDS011;700;51.906;8.404;2024-01-07T19:08:59;8.40;;;4.90;;
1410;SDS011;700;51.906;8.404;2024-01-07T19:14:01;7.80;;;5.17;;
1410;SDS011;700;51.906;8.404;2024-01-07T19:19:02;5.77;;;4.47;;
1410;SDS011;700;51.906;8.404;2024-01-07T19:24:05;8.67;;;5.40;;
1410;SDS011;700;51.906;8.404;2024-01-07T19:29:08;7.90;;;5.20;;
1410;SDS011;700;51.906;8.404;2024-01-07T19:34:08;7.50;;;5.53;;
1410;SDS011;700;51.906;8.404;2024-01-07T19:39:12;8.20;;;5.43;;
1410;SDS011;700;51.906;8.404;2024-01-07T19:44:16;8.60;;;5.70;;
1410;SDS011;700;51.906;8.404;2024-01-07T19:49:17;8.90;;;5.70;;
1410;SDS011;700;51.906;8.404;2024-01-07T19:54:20;8.70;;;5.47;;
1410;SDS011;700;51.906;8.404;2024-01-07T19:59:26;7.30;;;5.07;;
1410;SDS011;700;51.906;8.404;2024-01-07T20:04:29;5.50;;;4.30;;
1410;SDS011;700;51.906;8.404;2024-01-07T20:09:29;8.93;;;5.40;;
1410;SDS011;700;51.906;8.404;2024-01-07T20:14:30;7.83;;;5.90;;
1410;SDS011;700;51.906;8.404;2024-01-07T20:19:34;6.80;;;4.50;;
1410;SDS011;700;51.906;8.404;2024-01-07T20:24:37;6.63;;;4.87;;
1410;SDS011;700;51.906;8.404;2024-01-07T20:29:39;11.47;;;4.97;;
1410;SDS011;700;51.906;8.404;2024-01-07T20:34:40;8.23;;;5.23;;
1410;SDS011;700;51.906;8.404;2024-01-07T20:39:41;5.87;;;4.23;;
1410;SDS011;700;51.906;8.404;2024-01-07T20:44:41;6.83;;;4.27;;
1410;SDS011;700;51.906;8.404;2024-01-07T20:49:44;6.40;;;4.70;;
1410;SDS011;700;51.906;8.404;2024-01-07T20:54:45;8.33;;;5.37;;
1410;SDS011;700;51.906;8.404;2024-01-07T20:59:47;7.03;;;4.53;;
1410;SDS011;700;51.906;8.404;2024-01-07T21:04:47;6.40;;;4.40;;
1410;SDS011;700;51.906;8.404;2024-01-07T21:09:52;8.07;;;5.00;;
1410;SDS011;700;51.906;8.404;2024-01-07T21:14:52;7.13;;;3.93;;
1410;SDS011;700;51.906;8.404;2024-01-07T21:19:54;5.90;;;4.20;;
1410;SDS011;700;51.906;8.404;2024-01-07T21:24:57;7.97;;;4.90;;
1410;SDS011;700;51.906;8.404;2024-01-07T21:29:57;6.30;;;3.63;;
1410;SDS011;700;51.906;8.404;2024-01-07T21:35:02;6.37;;;4.50;;
1410;SDS011;700;51.906;8.404;2024-01-07T21:40:03;6.50;;;3.77;;
1410;SDS011;700;51.906;8.404;2024-01-07T21:45:07;6.17;;;3.83;;
1410;SDS011;700;51.906;8.404;2024-01-07T21:50:13;4.87;;;4.07;;
1410;SDS011;700;51.906;8.404;2024-01-07T21:55:16;5.77;;;3.70;;
1410;SDS011;700;51.906;8.404;2024-01-07T22:00:17;7.37;;;3.80;;
1410;SDS011;700;51.906;8.404;2024-01-07T22:05:20;5.77;;;4.00;;
1410;SDS011;700;51.906;8.404;2024-01-07T22:10:21;5.20;;;3.80;;
1410;SDS011;700;51.906;8.404;2024-01-07T22:15:21;5.43;;;3.20;;
1410;SDS011;700;51.906;8.404;2024-01-07T22:20:27;5.47;;;2.93;;
1410;SDS011;700;51.906;8.404;2024-01-07T22:25:30;6.10;;;3.30;;
1410;SDS011;700;51.906;8.404;2024-01-07T22:30:31;4.97;;;3.27;;
1410;SDS011;700;51.906;8.404;2024-01-07T22:35:32;6.23;;;3.30;;
1410;SDS011;700;51.906;8.404;2024-01-07T22:40:35;4.60;;;3.13;;
1410;SDS011;700;51.906;8.404;2024-01-07T22:45:35;4.50;;;3.47;;
1410;SDS011;700;51.906;8.404;2024-01-07T22:50:38;6.37;;;3.47;;
1410;SDS011;700;51.906;8.404;2024-01-07T22:55:42;4.80;;;3.20;;
1410;SDS011;700;51.906;8.404;2024-01-07T23:00:43;6.47;;;3.50;;
1410;SDS011;700;51.906;8.404;2024-01-07T23:05:44;5.87;;;4.33;;
1410;SDS011;700;51.906;8.404;2024-01-07T23:10:47;6.30;;;4.23;;
1410;SDS011;700;51.906;8.404;2024-01-07T23:15:49;6.80;;;4.33;;
1410;SDS011;700;51.906;8.404;2024-01-07T23:20:50;5.57;;;3.83;;
1410;SDS011;700;51.906;8.404;2024-01-07T23:25:51;8.70;;;4.30;;
1410;SDS011;700;51.906;8.404;2024-01-07T23:30:56;10.97;;;7.80;;
1410;SDS011;700;51.906;8.404;2024-01-07T23:36:01;6.97;;;4.97;;
1410;SDS011;700;51.906;8.404;2024-01-07T23:41:08;6.53;;;4.13;;
1410;SDS011;700;51.906;8.404;2024-01-07T23:46:11;4.73;;;3.67;;
1410;SDS011;700;51.906;8.404;2024-01-07T23:51:12;7.70;;;5.07;;
1410;SDS011;700;51.906;8.404;2024-01-07T23:56:12;8.33;;;4.40;;
